createdAt,value
2018-07-09T00:00:56.393Z,5.23
2018-07-09T00:03:25.143Z,10.70
2018-07-09T00:05:53.429Z,4.93
2018-07-09T00:08:21.449Z,4.37
2018-07-09T00:10:54.013Z,6.00
2018-07-09T00:13:23.220Z,5.47
2018-07-09T00:15:50.741Z,7.53
2018-07-09T00:18:18.204Z,8.10
2018-07-09T00:20:45.586Z,8.30
2018-07-09T00:23:13.732Z,4.93
2018-07-09T00:25:41.157Z,6.57
2018-07-09T00:28:08.485Z,5.47
2018-07-09T00:30:35.863Z,5.90
2018-07-09T00:33:03.268Z,6.83
2018-07-09T00:35:30.622Z,5.53
2018-07-09T00:37:58.034Z,7.00
2018-07-09T00:40:25.382Z,10.73
2018-07-09T00:42:52.739Z,13.70
2018-07-09T00:45:20.190Z,6.17
2018-07-09T00:47:47.634Z,14.43
2018-07-09T00:50:14.979Z,6.87
2018-07-09T00:52:43.067Z,9.23
2018-07-09T00:55:11.654Z,10.10
2018-07-09T00:57:38.993Z,7.23
2018-07-09T01:00:06.330Z,7.37
2018-07-09T01:02:33.694Z,6.80
2018-07-09T01:05:01.033Z,10.43
2018-07-09T01:07:28.410Z,8.40
2018-07-09T01:09:55.826Z,6.63
2018-07-09T01:12:24.285Z,7.13
2018-07-09T01:14:51.635Z,9.00
2018-07-09T01:17:18.989Z,7.30
2018-07-09T01:19:46.349Z,6.40
2018-07-09T01:22:13.777Z,14.73
2018-07-09T01:24:41.349Z,7.83
2018-07-09T01:27:08.716Z,6.97
2018-07-09T01:29:36.047Z,10.07
2018-07-09T01:32:03.399Z,9.27
2018-07-09T01:34:30.789Z,9.73
2018-07-09T01:36:58.185Z,10.67
2018-07-09T01:39:25.648Z,10.77
2018-07-09T01:41:53.102Z,8.23
2018-07-09T01:44:20.638Z,7.83
2018-07-09T01:46:48.057Z,12.80
2018-07-09T01:49:15.441Z,8.27
2018-07-09T01:51:42.878Z,15.97
2018-07-09T01:54:10.417Z,11.50
2018-07-09T01:56:37.790Z,11.37
2018-07-09T01:59:05.169Z,11.67
2018-07-09T02:01:32.529Z,15.90
2018-07-09T02:03:59.935Z,9.93
2018-07-09T02:06:27.380Z,14.70
2018-07-09T02:08:54.742Z,12.60
2018-07-09T02:11:22.169Z,16.23
2018-07-09T02:13:49.517Z,13.00
2018-07-09T02:16:16.992Z,16.20
2018-07-09T02:18:45.387Z,13.77
2018-07-09T02:21:12.870Z,14.87
2018-07-09T02:23:40.299Z,14.27
2018-07-09T02:26:07.663Z,16.27
2018-07-09T02:28:35.050Z,10.10
2018-07-09T02:31:02.494Z,14.53
2018-07-09T02:33:29.846Z,13.03
2018-07-09T02:35:57.213Z,13.47
2018-07-09T02:38:24.613Z,14.40
2018-07-09T02:40:52.097Z,13.60
2018-07-09T02:43:19.535Z,12.93
2018-07-09T02:45:46.916Z,17.77
2018-07-09T02:48:14.244Z,12.23
2018-07-09T02:50:41.578Z,28.40
2018-07-09T02:53:08.979Z,20.53
2018-07-09T02:55:36.390Z,16.90
2018-07-09T02:58:03.851Z,16.80
2018-07-09T03:00:32.257Z,11.97
2018-07-09T03:02:59.677Z,15.97
2018-07-09T03:05:28.179Z,15.80
2018-07-09T03:07:55.580Z,16.50
2018-07-09T03:10:22.925Z,18.43
2018-07-09T03:12:50.291Z,16.30
2018-07-09T03:15:17.642Z,20.67
2018-07-09T03:17:45.052Z,16.10
2018-07-09T03:20:12.450Z,17.83
2018-07-09T03:22:39.858Z,14.67
2018-07-09T03:25:07.235Z,14.27
2018-07-09T03:27:34.629Z,21.83
2018-07-09T03:30:02.114Z,13.40
2018-07-09T03:32:29.531Z,19.23
2018-07-09T03:34:56.909Z,17.40
2018-07-09T03:37:24.285Z,17.60
2018-07-09T03:39:51.610Z,14.90
2018-07-09T03:42:19.037Z,18.13
2018-07-09T03:44:46.470Z,16.37
2018-07-09T03:47:14.046Z,16.27
2018-07-09T03:49:41.452Z,18.03
2018-07-09T03:52:08.917Z,19.77
2018-07-09T03:54:36.413Z,16.30
2018-07-09T03:57:03.857Z,19.73
2018-07-09T03:59:31.391Z,19.33
2018-07-09T04:01:58.767Z,17.00
2018-07-09T04:04:26.134Z,17.43
2018-07-09T04:06:53.522Z,18.40
2018-07-09T04:09:20.969Z,17.07
2018-07-09T04:11:48.537Z,17.80
2018-07-09T04:14:15.953Z,16.17
2018-07-09T04:16:43.489Z,21.13
2018-07-09T04:19:10.930Z,23.20
2018-07-09T04:21:38.438Z,21.27
2018-07-09T04:24:06.022Z,13.50
2018-07-09T04:26:33.668Z,20.53
2018-07-09T04:29:01.056Z,20.40
2018-07-09T04:31:28.454Z,14.67
2018-07-09T04:33:55.874Z,22.90
2018-07-09T04:36:23.289Z,15.60
2018-07-09T04:38:50.737Z,15.23
2018-07-09T04:41:18.061Z,20.37
2018-07-09T04:43:45.405Z,20.00
2018-07-09T04:46:12.889Z,16.93
2018-07-09T04:48:40.266Z,20.20
2018-07-09T04:51:07.754Z,17.47
2018-07-09T04:53:35.437Z,19.63
2018-07-09T04:56:02.750Z,16.30
2018-07-09T04:58:30.089Z,21.20
2018-07-09T05:00:57.450Z,18.43
2018-07-09T05:03:25.107Z,20.77
2018-07-09T05:05:52.484Z,20.67
2018-07-09T05:08:19.868Z,22.80
2018-07-09T05:10:47.345Z,16.33
2018-07-09T05:13:14.790Z,26.27
2018-07-09T05:15:42.456Z,24.73
2018-07-09T05:18:09.844Z,21.40
2018-07-09T05:21:40.744Z,20.40
2018-07-09T05:24:08.241Z,17.27
2018-07-09T05:26:35.793Z,18.73
2018-07-09T05:29:03.279Z,21.13
2018-07-09T05:31:30.679Z,28.53
2018-07-09T05:33:58.061Z,23.10
2018-07-09T05:36:25.404Z,19.23
2018-07-09T05:38:52.833Z,21.00
2018-07-09T05:41:20.268Z,18.13
2018-07-09T05:43:47.750Z,19.80
2018-07-09T05:46:15.230Z,19.67
2018-07-09T05:48:43.599Z,15.40
2018-07-09T05:51:10.934Z,18.17
2018-07-09T05:53:38.435Z,21.00
2018-07-09T05:56:05.802Z,13.33
2018-07-09T05:58:33.339Z,11.87
2018-07-09T06:01:00.766Z,14.30
2018-07-09T06:03:28.214Z,19.73
2018-07-09T06:05:55.543Z,14.17
2018-07-09T06:08:22.928Z,13.30
2018-07-09T06:10:50.306Z,12.17
2018-07-09T06:13:17.663Z,10.97
2018-07-09T06:15:45.049Z,12.80
2018-07-09T06:18:12.415Z,11.80
2018-07-09T06:20:39.800Z,9.20
2018-07-09T06:23:07.257Z,17.80
2018-07-09T06:25:34.723Z,8.60
2018-07-09T06:28:02.011Z,10.10
2018-07-09T06:30:29.446Z,13.77
2018-07-09T06:32:56.817Z,11.17
2018-07-09T06:35:24.170Z,13.30
2018-07-09T06:37:51.562Z,10.07
2018-07-09T06:40:18.891Z,15.23
2018-07-09T06:42:46.286Z,7.83
2018-07-09T06:45:13.729Z,12.03
2018-07-09T06:47:41.124Z,10.33
2018-07-09T06:50:08.502Z,9.13
2018-07-09T06:52:35.901Z,10.10
2018-07-09T06:55:03.328Z,8.30
2018-07-09T06:57:30.713Z,10.57
2018-07-09T06:59:58.071Z,9.13
2018-07-09T07:02:25.565Z,9.87
2018-07-09T07:04:52.840Z,7.53
2018-07-09T07:07:20.274Z,7.63
2018-07-09T07:09:47.745Z,8.53
2018-07-09T07:12:15.074Z,5.57
2018-07-09T07:14:42.459Z,5.00
2018-07-09T07:17:09.831Z,6.63
2018-07-09T07:19:37.213Z,6.47
2018-07-09T07:22:04.601Z,5.60
2018-07-09T07:24:31.953Z,4.70
2018-07-09T07:26:59.339Z,7.67
2018-07-09T07:29:26.701Z,5.17
2018-07-09T07:31:54.183Z,7.30
2018-07-09T07:34:21.723Z,10.07
2018-07-09T07:36:49.100Z,7.83
2018-07-09T07:39:16.481Z,6.53
2018-07-09T07:41:44.609Z,6.67
2018-07-09T07:44:12.038Z,7.23
2018-07-09T07:46:39.431Z,5.10
2018-07-09T07:49:06.922Z,5.83
2018-07-09T07:51:34.271Z,9.03
2018-07-09T07:54:01.610Z,7.80
2018-07-09T07:56:29.071Z,10.00
2018-07-09T08:00:25.973Z,9.73
2018-07-09T08:02:53.327Z,7.10
2018-07-09T08:05:20.693Z,7.63
2018-07-09T08:07:48.058Z,7.17
2018-07-09T08:10:15.385Z,8.70
2018-07-09T08:15:10.101Z,5.40
2018-07-09T08:17:37.462Z,7.90
2018-07-09T08:20:06.028Z,12.33
2018-07-09T08:22:33.370Z,9.47
2018-07-09T08:25:00.839Z,9.83
2018-07-09T08:27:28.127Z,7.33
2018-07-09T08:29:55.463Z,7.80
2018-07-09T08:32:22.825Z,10.90
2018-07-09T08:34:50.171Z,9.90
2018-07-09T08:37:17.522Z,9.90
2018-07-09T08:39:44.856Z,7.67
2018-07-09T08:42:12.225Z,7.63
2018-07-09T08:44:40.150Z,8.50
2018-07-09T08:47:07.501Z,10.67
2018-07-09T08:49:34.818Z,8.33
2018-07-09T08:52:02.160Z,9.20
2018-07-09T08:54:29.563Z,8.77
2018-07-09T08:56:56.971Z,6.50
2018-07-09T08:59:24.708Z,10.63
2018-07-09T09:01:52.110Z,6.17
2018-07-09T09:04:19.501Z,9.30
2018-07-09T09:06:46.849Z,7.50
2018-07-09T09:09:14.257Z,8.63
2018-07-09T09:11:41.687Z,6.50
2018-07-09T09:14:09.113Z,8.80
2018-07-09T09:16:36.644Z,6.77
2018-07-09T09:19:04.010Z,10.10
2018-07-09T09:21:31.344Z,9.93
2018-07-09T09:23:58.769Z,10.27
2018-07-09T09:26:26.151Z,11.60
2018-07-09T09:28:53.521Z,9.27
2018-07-09T09:31:21.108Z,7.60
2018-07-09T09:33:48.394Z,11.73
2018-07-09T09:36:15.784Z,11.20
2018-07-09T09:39:46.149Z,10.50
2018-07-09T09:42:13.485Z,9.47
2018-07-09T09:44:40.853Z,13.60
2018-07-09T09:47:08.201Z,9.00
2018-07-09T09:49:35.526Z,12.93
2018-07-09T09:52:02.870Z,9.37
2018-07-09T09:54:30.225Z,11.00
2018-07-09T09:56:57.566Z,6.90
2018-07-09T09:59:24.928Z,7.07
2018-07-09T10:01:52.508Z,6.30
2018-07-09T10:04:19.829Z,6.93
2018-07-09T10:06:47.170Z,7.73
2018-07-09T10:09:14.572Z,8.97
2018-07-09T10:11:41.904Z,8.63
2018-07-09T10:14:09.248Z,6.67
2018-07-09T10:16:36.594Z,10.60
2018-07-09T10:19:03.986Z,8.70
2018-07-09T10:21:33.338Z,9.20
2018-07-09T10:24:00.695Z,7.63
2018-07-09T10:26:28.014Z,14.00
2018-07-09T10:28:55.351Z,8.40
2018-07-09T10:31:22.685Z,8.97
2018-07-09T10:33:50.152Z,6.77
2018-07-09T10:36:17.495Z,6.40
2018-07-09T10:38:44.943Z,10.60
2018-07-09T10:41:12.310Z,7.97
2018-07-09T10:43:40.086Z,8.03
2018-07-09T10:46:07.678Z,7.33
2018-07-09T10:48:35.004Z,6.27
2018-07-09T10:51:02.349Z,5.93
2018-07-09T10:53:30.039Z,4.90
2018-07-09T10:55:57.415Z,5.67
2018-07-09T10:58:24.794Z,8.40
2018-07-09T11:00:52.195Z,6.07
2018-07-09T11:03:19.676Z,6.33
2018-07-09T11:05:47.271Z,8.37
2018-07-09T11:08:14.858Z,9.47
2018-07-09T11:10:42.311Z,5.53
2018-07-09T11:13:09.656Z,5.10
2018-07-09T11:15:37.033Z,7.50
2018-07-09T11:18:04.388Z,8.67
2018-07-09T11:20:31.731Z,8.03
2018-07-09T11:22:59.093Z,8.20
2018-07-09T11:25:26.484Z,8.60
2018-07-09T11:27:54.417Z,5.87
2018-07-09T11:30:21.786Z,6.00
2018-07-09T11:32:49.133Z,5.07
2018-07-09T11:35:16.553Z,4.33
2018-07-09T11:37:43.924Z,4.67
2018-07-09T11:40:11.334Z,3.33
2018-07-09T11:42:38.733Z,3.30
2018-07-09T11:45:06.230Z,3.73
2018-07-09T11:47:33.585Z,4.70
2018-07-09T11:50:01.018Z,2.67
2018-07-09T11:52:28.366Z,2.70
2018-07-09T11:54:55.791Z,3.63
2018-07-09T11:57:23.202Z,3.70
2018-07-09T11:59:50.581Z,3.27
2018-07-09T12:02:17.945Z,2.90
2018-07-09T12:04:45.426Z,4.20
2018-07-09T12:07:12.773Z,4.00
2018-07-09T12:09:40.136Z,2.83
2018-07-09T12:12:07.565Z,2.97
2018-07-09T12:14:34.990Z,3.57
2018-07-09T12:17:02.386Z,3.40
2018-07-09T12:19:29.736Z,4.13
2018-07-09T12:21:57.133Z,23.53
2018-07-09T12:24:25.118Z,3.70
2018-07-09T12:26:52.616Z,4.10
2018-07-09T12:29:19.975Z,8.23
2018-07-09T12:31:47.317Z,6.30
2018-07-09T12:34:14.810Z,4.27
2018-07-09T12:36:42.202Z,4.03
2018-07-09T12:39:09.615Z,3.33
2018-07-09T12:41:37.135Z,3.13
2018-07-09T12:44:04.525Z,4.83
2018-07-09T12:46:31.932Z,4.57
2018-07-09T12:49:00.342Z,3.07
2018-07-09T12:51:27.690Z,4.60
2018-07-09T12:53:55.240Z,3.10
2018-07-09T12:56:22.638Z,10.63
2018-07-09T12:58:50.014Z,3.70
2018-07-09T13:01:18.193Z,2.23
2018-07-09T13:03:45.591Z,5.30
2018-07-09T13:06:12.993Z,3.00
2018-07-09T13:08:41.404Z,2.17
2018-07-09T13:11:08.759Z,2.40
2018-07-09T13:13:36.181Z,6.10
2018-07-09T13:16:03.532Z,6.20
2018-07-09T13:18:30.996Z,2.40
2018-07-09T13:21:04.337Z,8.10
2018-07-09T13:23:31.725Z,4.97
2018-07-09T13:25:59.095Z,4.93
2018-07-09T13:28:26.823Z,4.60
2018-07-09T13:30:54.247Z,2.83
2018-07-09T13:33:21.595Z,3.13
2018-07-09T13:35:48.944Z,3.63
2018-07-09T13:38:16.320Z,4.63
2018-07-09T13:40:43.704Z,4.50
2018-07-09T13:43:11.086Z,3.93
2018-07-09T13:45:38.447Z,3.77
2018-07-09T13:48:05.866Z,1.40
2018-07-09T13:50:33.420Z,6.67
2018-07-09T13:53:00.794Z,2.80
2018-07-09T13:55:28.703Z,3.87
2018-07-09T13:57:56.070Z,1.10
2018-07-09T14:44:03.751Z,4.80
2018-07-09T14:46:31.116Z,5.67
2018-07-09T14:50:28.012Z,4.57
2018-07-09T14:52:55.437Z,4.30
2018-07-09T14:55:22.779Z,10.63
2018-07-09T14:57:50.113Z,10.53
2018-07-09T15:00:17.474Z,4.30
2018-07-09T15:02:44.845Z,4.80
2018-07-09T15:05:12.216Z,3.97
2018-07-09T15:07:39.585Z,4.73
2018-07-09T15:10:07.023Z,9.47
2018-07-09T15:12:34.385Z,6.37
2018-07-09T15:15:01.776Z,7.00
2018-07-09T15:17:29.198Z,10.93
2018-07-09T15:19:56.573Z,6.80
2018-07-09T15:22:23.942Z,4.93
2018-07-09T15:24:51.338Z,5.23
2018-07-09T15:27:18.693Z,4.73
2018-07-09T15:29:46.092Z,7.50
2018-07-09T15:32:14.609Z,7.20
2018-07-09T15:34:41.989Z,6.60
2018-07-09T15:37:09.485Z,3.93
2018-07-09T15:39:36.935Z,5.00
2018-07-09T15:42:04.321Z,10.47
2018-07-09T15:44:31.738Z,5.60
2018-07-09T15:46:59.169Z,7.70
2018-07-09T15:49:26.586Z,4.27
2018-07-09T15:51:54.046Z,9.83
2018-07-09T15:54:21.464Z,8.10
2018-07-09T15:56:48.785Z,8.00
2018-07-09T15:59:16.150Z,5.83
2018-07-09T16:01:43.660Z,6.87
2018-07-09T16:04:11.045Z,6.50
2018-07-09T16:06:38.473Z,7.80
2018-07-09T16:09:06.148Z,5.70
2018-07-09T16:11:33.669Z,4.70
2018-07-09T16:14:01.058Z,6.60
2018-07-09T16:16:28.420Z,5.60
2018-07-09T16:18:55.762Z,4.17
2018-07-09T16:21:23.122Z,6.40
2018-07-09T16:23:50.459Z,6.37
2018-07-09T16:26:17.857Z,9.73
2018-07-09T16:28:45.226Z,6.90
2018-07-09T16:31:12.599Z,5.20
2018-07-09T16:33:39.957Z,5.33
2018-07-09T16:36:07.340Z,2.67
2018-07-09T16:38:34.727Z,12.30
2018-07-09T16:41:02.126Z,6.00
2018-07-09T16:43:29.525Z,14.27
2018-07-09T16:45:56.898Z,9.23
2018-07-09T16:48:24.475Z,7.27
2018-07-09T16:50:51.900Z,6.87
2018-07-09T16:53:19.745Z,5.67
2018-07-09T16:55:47.139Z,5.13
2018-07-09T16:58:14.503Z,6.80
2018-07-09T17:00:42.002Z,8.87
2018-07-09T17:03:10.049Z,5.57
2018-07-09T17:05:37.617Z,9.67
2018-07-09T17:08:05.109Z,6.20
2018-07-09T17:10:32.461Z,4.60
2018-07-09T17:12:59.829Z,6.57
2018-07-09T17:15:27.202Z,6.83
2018-07-09T17:17:54.664Z,9.03
2018-07-09T17:20:22.123Z,7.50
2018-07-09T17:22:49.466Z,7.50
2018-07-09T17:25:16.809Z,2.40
2018-07-09T17:27:44.218Z,4.73
2018-07-09T17:30:11.546Z,5.33
2018-07-09T17:32:38.910Z,3.97
2018-07-09T17:35:06.415Z,14.33
2018-07-09T17:37:34.017Z,6.00
2018-07-09T17:40:01.439Z,9.10
2018-07-09T17:42:28.836Z,6.40
2018-07-09T17:44:56.190Z,9.23
2018-07-09T17:48:26.904Z,5.43
2018-07-09T17:50:54.330Z,8.50
2018-07-09T17:53:21.689Z,3.37
2018-07-09T17:55:49.046Z,14.13
2018-07-09T17:58:16.379Z,5.00
2018-07-09T18:00:44.654Z,6.60
2018-07-09T18:03:12.045Z,14.20
2018-07-09T18:05:39.397Z,7.67
2018-07-09T18:08:06.829Z,12.33
2018-07-09T18:10:34.223Z,7.53
2018-07-09T18:13:01.568Z,11.00
2018-07-09T18:15:28.934Z,9.03
2018-07-09T18:17:56.361Z,5.80
2018-07-09T18:20:25.208Z,4.80
2018-07-09T18:22:52.712Z,6.10
2018-07-09T18:25:20.199Z,4.63
2018-07-09T18:27:47.532Z,8.53
2018-07-09T18:30:14.876Z,7.37
2018-07-09T18:32:42.279Z,3.70
2018-07-09T18:35:09.643Z,5.47
2018-07-09T18:37:37.166Z,7.03
2018-07-09T18:40:04.562Z,3.50
2018-07-09T18:42:31.932Z,6.47
2018-07-09T18:44:59.289Z,6.93
2018-07-09T18:47:27.005Z,7.33
2018-07-09T18:49:54.348Z,3.83
2018-07-09T18:52:21.821Z,3.00
2018-07-09T18:54:49.321Z,6.30
2018-07-09T18:57:16.756Z,6.43
2018-07-09T18:59:44.140Z,9.07
2018-07-09T19:02:11.579Z,11.30
2018-07-09T19:04:38.978Z,9.90
2018-07-09T19:07:08.069Z,9.57
2018-07-09T19:09:36.249Z,6.67
2018-07-09T19:12:04.519Z,8.03
2018-07-09T19:14:36.513Z,7.63
2018-07-09T19:18:13.518Z,7.23
2018-07-09T19:21:16.755Z,6.30
2018-07-09T19:23:43.618Z,6.40
2018-07-09T19:26:14.113Z,8.73
2018-07-09T19:28:41.022Z,8.23
2018-07-09T19:31:07.855Z,6.17
2018-07-09T19:33:34.703Z,9.50
2018-07-09T19:36:01.554Z,5.77
2018-07-09T19:38:28.531Z,14.20
2018-07-09T19:40:55.378Z,11.40
2018-07-09T19:43:22.345Z,6.03
2018-07-09T19:45:49.354Z,9.63
2018-07-09T19:48:16.173Z,4.50
2018-07-09T19:50:43.039Z,8.37
2018-07-09T19:53:09.882Z,9.03
2018-07-09T19:55:36.754Z,8.70
2018-07-09T19:58:04.350Z,6.80
2018-07-09T20:00:32.242Z,7.93
2018-07-09T20:02:59.081Z,8.40
2018-07-09T20:05:25.981Z,6.70
2018-07-09T20:07:52.834Z,7.13
2018-07-09T20:10:25.213Z,4.00
2018-07-09T20:12:57.835Z,8.80
2018-07-09T20:15:30.444Z,8.63
2018-07-09T20:17:57.292Z,6.40
2018-07-09T20:20:24.126Z,7.43
2018-07-09T20:22:51.066Z,7.40
2018-07-09T20:25:18.437Z,10.80
2018-07-09T20:27:45.290Z,9.60
2018-07-09T20:30:12.393Z,6.53
2018-07-09T20:32:39.274Z,6.90
2018-07-09T20:35:08.213Z,8.90
2018-07-09T20:37:35.743Z,10.13
2018-07-09T20:40:02.609Z,4.33
2018-07-09T20:42:29.465Z,5.50
2018-07-09T20:44:56.321Z,7.77
2018-07-09T20:47:23.189Z,9.80
2018-07-09T20:49:50.065Z,10.77
2018-07-09T20:52:16.949Z,11.07
2018-07-09T20:54:43.869Z,6.40
2018-07-09T20:57:11.017Z,5.63
2018-07-09T20:59:37.888Z,5.60
2018-07-09T21:02:04.774Z,7.40
2018-07-09T21:04:32.102Z,11.97
2018-07-09T21:07:00.218Z,7.17
2018-07-09T21:09:28.018Z,2.97
2018-07-09T21:11:55.543Z,7.13
2018-07-09T21:14:22.389Z,6.80
2018-07-09T21:16:49.288Z,8.50
2018-07-09T21:19:16.214Z,6.10
2018-07-09T21:21:43.111Z,13.17
2018-07-09T21:24:10.064Z,8.73
2018-07-09T21:26:37.028Z,7.73
2018-07-09T21:29:04.011Z,7.70
2018-07-09T21:31:30.914Z,6.50
2018-07-09T21:33:58.382Z,6.37
2018-07-09T21:36:25.406Z,4.53
2018-07-09T21:38:52.285Z,7.53
2018-07-09T21:41:19.237Z,14.90
2018-07-09T21:43:46.123Z,7.30
2018-07-09T21:46:13.070Z,8.47
2018-07-09T21:48:39.996Z,8.20
2018-07-09T21:51:06.825Z,7.20
2018-07-09T21:53:33.699Z,4.87
2018-07-09T21:56:00.621Z,6.57
2018-07-09T21:58:27.884Z,9.33
2018-07-09T22:00:54.729Z,6.20
2018-07-09T22:03:21.670Z,7.27
2018-07-09T22:05:48.544Z,5.70
2018-07-09T22:08:15.659Z,7.37
2018-07-09T22:10:42.538Z,11.17
2018-07-09T22:13:09.447Z,4.30
2018-07-09T22:15:36.355Z,9.67
2018-07-09T22:18:03.264Z,9.37
2018-07-09T22:20:30.157Z,11.10
2018-07-09T22:22:57.105Z,10.70
2018-07-09T22:25:24.006Z,6.40
2018-07-09T22:27:50.952Z,9.33
2018-07-09T22:30:24.007Z,6.33
2018-07-09T22:32:51.335Z,10.80
2018-07-09T22:35:18.835Z,4.70
2018-07-09T22:37:46.230Z,8.30
2018-07-09T22:40:13.587Z,7.13
2018-07-09T22:42:41.094Z,7.67
2018-07-09T22:45:08.881Z,11.43
2018-07-09T22:47:36.327Z,6.00
2018-07-09T22:50:03.729Z,8.23
2018-07-09T22:52:31.144Z,10.33
2018-07-09T22:55:04.274Z,9.07
2018-07-09T22:57:31.743Z,7.03
2018-07-09T22:59:59.192Z,7.73
2018-07-09T23:02:26.885Z,13.63
2018-07-09T23:04:54.545Z,3.77
2018-07-09T23:07:22.324Z,7.20
2018-07-09T23:10:06.693Z,12.03
2018-07-09T23:12:40.086Z,3.70
2018-07-09T23:15:17.262Z,7.30
2018-07-09T23:17:50.678Z,14.00
2018-07-09T23:20:23.864Z,9.07
2018-07-09T23:22:50.884Z,4.93
2018-07-09T23:25:17.991Z,7.27
2018-07-09T23:27:44.985Z,7.87
2018-07-09T23:30:11.975Z,8.80
2018-07-09T23:32:38.909Z,9.53
2018-07-09T23:35:05.772Z,6.17
2018-07-09T23:37:32.630Z,11.17
2018-07-09T23:39:59.477Z,8.63
2018-07-09T23:42:26.337Z,8.60
2018-07-09T23:44:53.189Z,5.73
2018-07-09T23:47:20.075Z,4.20
2018-07-09T23:49:47.033Z,12.03
2018-07-09T23:52:13.969Z,4.83
2018-07-09T23:54:40.834Z,7.00
2018-07-09T23:57:13.957Z,7.60
2018-07-09T23:59:48.009Z,5.70
